Time;durP1;ratioP1;P1;durP2;ratioP2;P2;SDS_P1;SDS_P2;PMS_P1;PMS_P2;Temp;Humidity;BMP_temperature;BMP_pressure;BME280_temperature;BME280_humidity;BME280_pressure;Samples;Min_cycle;Max_cycle;Signal;HPM_P1;HPM_P2
2020/12/27 00:02:24;;;;;;;7.70;4.83;;;;;;;;;;4990898;28;20649;-73
2020/12/27 00:05:29;;;;;;;8.30;4.67;;;;;;;;;;4995749;28;20534;-73
2020/12/27 00:08:33;;;;;;;7.13;4.30;;;;;;;;;;4991993;28;20965;-73
2020/12/27 00:11:37;;;;;;;9.60;5.23;;;;;;;;;;4995345;28;20624;-73
2020/12/27 00:14:41;;;;;;;8.93;4.60;;;;;;;;;;5012316;22;20690;-73
2020/12/27 00:17:45;;;;;;;8.27;4.93;;;;;;;;;;5027368;28;20607;-73
2020/12/27 00:20:49;;;;;;;7.83;5.17;;;;;;;;;;5022237;28;20607;-73
2020/12/27 00:23:53;;;;;;;6.40;4.40;;;;;;;;;;5034088;28;20548;-73
2020/12/27 00:26:58;;;;;;;8.03;4.40;;;;;;;;;;5027302;28;21165;-73
2020/12/27 00:30:03;;;;;;;7.97;5.10;;;;;;;;;;5014220;28;20553;-73
2020/12/27 00:33:08;;;;;;;9.60;4.80;;;;;;;;;;5017838;28;20596;-73
2020/12/27 00:36:20;;;;;;;7.83;4.10;;;;;;;;;;5033413;28;20580;-73
2020/12/27 00:39:25;;;;;;;8.40;4.30;;;;;;;;;;5033752;28;20900;-73
2020/12/27 00:42:30;;;;;;;5.87;4.27;;;;;;;;;;5016404;28;20988;-73
2020/12/27 00:45:34;;;;;;;6.33;4.70;;;;;;;;;;5006762;28;21153;-73
2020/12/27 00:48:38;;;;;;;6.63;4.10;;;;;;;;;;5013773;28;20580;-73
2020/12/27 00:51:42;;;;;;;7.23;4.40;;;;;;;;;;5013761;28;20643;-73
2020/12/27 00:54:46;;;;;;;6.70;4.10;;;;;;;;;;5001689;28;20940;-73
2020/12/27 00:57:50;;;;;;;4.40;3.47;;;;;;;;;;5014219;28;20591;-73
2020/12/27 01:00:54;;;;;;;5.93;4.03;;;;;;;;;;5009599;28;20599;-73
2020/12/27 01:04:01;;;;;;;8.63;4.30;;;;;;;;;;5001392;28;20600;-73
2020/12/27 01:07:05;;;;;;;6.40;4.53;;;;;;;;;;5007441;28;20627;-73
2020/12/27 01:10:09;;;;;;;7.07;4.33;;;;;;;;;;5006689;28;20580;-73
2020/12/27 01:13:13;;;;;;;6.90;4.50;;;;;;;;;;5013404;28;20545;-73
2020/12/27 01:16:21;;;;;;;7.17;4.17;;;;;;;;;;5001251;28;20530;-73
2020/12/27 01:19:25;;;;;;;5.33;3.77;;;;;;;;;;5012548;28;20552;-73
2020/12/27 01:22:34;;;;;;;7.53;4.33;;;;;;;;;;5012487;28;20620;-73
2020/12/27 01:25:54;;;;;;;4.47;3.43;;;;;;;;;;5001524;28;20589;-73
2020/12/27 01:29:02;;;;;;;5.97;3.80;;;;;;;;;;5001211;28;20600;-73
2020/12/27 01:32:07;;;;;;;5.93;3.90;;;;;;;;;;5012521;28;20956;-73
2020/12/27 01:35:22;;;;;;;8.53;3.93;;;;;;;;;;5001342;28;20636;-73
2020/12/27 01:38:26;;;;;;;7.57;4.20;;;;;;;;;;5021128;28;20937;-73
2020/12/27 01:41:31;;;;;;;6.63;3.90;;;;;;;;;;5019098;28;20647;-73
2020/12/27 01:44:36;;;;;;;7.33;4.57;;;;;;;;;;5020639;28;20595;-73
2020/12/27 01:47:41;;;;;;;7.63;4.40;;;;;;;;;;5009836;28;20620;-73
2020/12/27 01:50:45;;;;;;;5.77;4.00;;;;;;;;;;5012969;28;20545;-73
2020/12/27 01:54:00;;;;;;;6.67;4.17;;;;;;;;;;5000998;28;20588;-73
2020/12/27 01:57:48;;;;;;;6.97;4.20;;;;;;;;;;5023157;28;20599;-73
2020/12/27 02:00:54;;;;;;;6.87;4.37;;;;;;;;;;5024444;28;20548;-73
2020/12/27 02:04:11;;;;;;;4.57;3.40;;;;;;;;;;5004663;28;20537;-73
2020/12/27 02:07:21;;;;;;;6.33;3.90;;;;;;;;;;5011719;28;20591;-73
2020/12/27 02:10:49;;;;;;;5.20;3.40;;;;;;;;;;5040055;28;20590;-73
2020/12/27 02:13:56;;;;;;;4.50;3.20;;;;;;;;;;5004464;28;20612;-73
2020/12/27 02:17:03;;;;;;;4.87;3.27;;;;;;;;;;5008691;28;20595;-73
2020/12/27 02:20:34;;;;;;;4.40;2.93;;;;;;;;;;5013136;28;21065;-73
2020/12/27 02:23:45;;;;;;;5.47;3.67;;;;;;;;;;5023974;28;20551;-72
2020/12/27 02:27:01;;;;;;;5.13;3.70;;;;;;;;;;5020572;28;20944;-72
2020/12/27 02:30:06;;;;;;;5.23;3.87;;;;;;;;;;5006565;28;20616;-72
2020/12/27 02:33:11;;;;;;;3.87;3.00;;;;;;;;;;5023825;28;20548;-73
2020/12/27 02:36:16;;;;;;;5.80;3.80;;;;;;;;;;5011973;28;20580;-73
2020/12/27 02:39:23;;;;;;;5.57;3.40;;;;;;;;;;4993485;28;20557;-73
2020/12/27 02:42:27;;;;;;;5.63;3.23;;;;;;;;;;5004859;28;20620;-73
2020/12/27 02:45:33;;;;;;;6.03;3.50;;;;;;;;;;5003988;28;20549;-73
2020/12/27 02:48:56;;;;;;;5.47;3.23;;;;;;;;;;5017159;28;20589;-73
2020/12/27 02:52:01;;;;;;;5.70;3.73;;;;;;;;;;5016175;28;20624;-73
2020/12/27 02:55:07;;;;;;;4.70;3.40;;;;;;;;;;5003621;28;20655;-73
2020/12/27 02:58:19;;;;;;;5.97;3.23;;;;;;;;;;5017898;28;20595;-73
2020/12/27 03:01:28;;;;;;;5.20;3.43;;;;;;;;;;5023440;28;21193;-73
2020/12/27 03:04:49;;;;;;;5.60;3.50;;;;;;;;;;5023057;28;20592;-73
2020/12/27 03:07:56;;;;;;;6.77;3.50;;;;;;;;;;5000108;28;20592;-73
2020/12/27 03:11:10;;;;;;;5.93;3.13;;;;;;;;;;5003839;28;20624;-73
2020/12/27 03:14:15;;;;;;;5.07;3.37;;;;;;;;;;5003345;28;21494;-73
2020/12/27 03:17:57;;;;;;;3.60;2.83;;;;;;;;;;5025906;28;20596;-73
2020/12/27 03:21:20;;;;;;;3.83;2.87;;;;;;;;;;5035243;28;21205;-73
2020/12/27 03:24:26;;;;;;;4.80;3.33;;;;;;;;;;4992211;28;20596;-73
2020/12/27 03:27:31;;;;;;;5.63;3.20;;;;;;;;;;5021873;28;20618;-73
2020/12/27 03:30:35;;;;;;;4.47;3.03;;;;;;;;;;5007265;28;20596;-73
2020/12/27 03:33:43;;;;;;;7.40;3.73;;;;;;;;;;5011383;28;20588;-73
2020/12/27 03:36:54;;;;;;;3.80;3.00;;;;;;;;;;5004868;28;20588;-73
2020/12/27 03:40:21;;;;;;;4.97;3.27;;;;;;;;;;5025878;28;20627;-73
2020/12/27 03:43:46;;;;;;;4.33;3.00;;;;;;;;;;5034956;28;20545;-73
2020/12/27 03:46:51;;;;;;;4.30;3.07;;;;;;;;;;5021611;28;20540;-73
2020/12/27 03:50:15;;;;;;;6.17;3.30;;;;;;;;;;5015295;28;20545;-73
2020/12/27 03:53:26;;;;;;;6.13;3.40;;;;;;;;;;5015932;28;20587;-73
2020/12/27 03:56:42;;;;;;;5.43;3.83;;;;;;;;;;5022083;28;20529;-73
2020/12/27 04:00:14;;;;;;;5.13;3.27;;;;;;;;;;5002828;28;20564;-73
2020/12/27 04:03:23;;;;;;;6.23;3.43;;;;;;;;;;5029960;28;20595;-72
2020/12/27 04:06:29;;;;;;;5.47;3.57;;;;;;;;;;5034159;28;20591;-73
2020/12/27 04:09:48;;;;;;;4.63;3.17;;;;;;;;;;5006354;28;20932;-73
2020/12/27 04:12:52;;;;;;;7.40;4.03;;;;;;;;;;4990875;28;20644;-73
2020/12/27 04:16:00;;;;;;;4.53;3.50;;;;;;;;;;4990894;28;20643;-73
2020/12/27 04:19:07;;;;;;;5.80;3.53;;;;;;;;;;5002400;28;20545;-72
2020/12/27 04:22:29;;;;;;;5.37;3.40;;;;;;;;;;5033759;28;20304;-72
2020/12/27 04:25:40;;;;;;;4.95;3.10;;;;;;;;;;5021632;28;20591;-73
2020/12/27 04:28:44;;;;;;;5.57;3.20;;;;;;;;;;4994073;28;20193;-73
2020/12/27 04:31:52;;;;;;;5.05;3.10;;;;;;;;;;5018376;28;20646;-73
2020/12/27 04:35:13;;;;;;;5.23;3.60;;;;;;;;;;5021071;28;20209;-73
2020/12/27 04:38:19;;;;;;;5.87;3.50;;;;;;;;;;5021728;28;20560;-73
2020/12/27 04:41:24;;;;;;;4.37;3.10;;;;;;;;;;4996896;28;20648;-73
2020/12/27 04:44:32;;;;;;;5.22;3.03;;;;;;;;;;5001747;28;20546;-73
2020/12/27 04:47:40;;;;;;;3.25;2.75;;;;;;;;;;5002129;28;20632;-73
2020/12/27 04:51:05;;;;;;;3.72;2.72;;;;;;;;;;5011657;28;20568;-73
2020/12/27 04:54:09;;;;;;;4.45;2.33;;;;;;;;;;5010459;28;20200;-73
2020/12/27 04:57:25;;;;;;;5.43;2.83;;;;;;;;;;5001567;28;20169;-73
2020/12/27 05:00:30;;;;;;;4.57;3.00;;;;;;;;;;5017896;28;20193;-73
2020/12/27 05:03:56;;;;;;;5.07;3.33;;;;;;;;;;5021443;28;20544;-73
2020/12/27 05:07:03;;;;;;;5.03;2.90;;;;;;;;;;5020858;28;20192;-73
2020/12/27 05:10:40;;;;;;;3.73;2.60;;;;;;;;;;5019097;28;20592;-73
2020/12/27 05:13:46;;;;;;;4.10;3.03;;;;;;;;;;5001625;28;21072;-73
2020/12/27 05:17:01;;;;;;;4.77;2.90;;;;;;;;;;4990292;28;20198;-73
2020/12/27 05:20:23;;;;;;;3.78;2.95;;;;;;;;;;5014705;28;20589;-73
2020/12/27 05:23:31;;;;;;;5.05;3.40;;;;;;;;;;5001146;28;20193;-73
2020/12/27 05:26:50;;;;;;;5.47;3.30;;;;;;;;;;5001275;28;20182;-73
2020/12/27 05:30:17;;;;;;;4.22;3.38;;;;;;;;;;5003651;28;20588;-73
2020/12/27 05:33:44;;;;;;;3.77;3.10;;;;;;;;;;5022333;28;20192;-73
2020/12/27 05:37:16;;;;;;;4.53;3.08;;;;;;;;;;5017355;28;20530;-73
2020/12/27 05:40:49;;;;;;;3.83;3.22;;;;;;;;;;5010935;28;20659;-73
2020/12/27 05:44:02;;;;;;;4.50;3.37;;;;;;;;;;5020306;28;20194;-73
2020/12/27 05:47:06;;;;;;;5.45;2.83;;;;;;;;;;5021805;28;20619;-73
2020/12/27 05:50:17;;;;;;;5.63;2.90;;;;;;;;;;5011611;28;20181;-73
2020/12/27 05:53:23;;;;;;;5.57;3.33;;;;;;;;;;4994265;28;20893;-73
2020/12/27 05:56:37;;;;;;;4.35;3.00;;;;;;;;;;5005121;28;20205;-73
2020/12/27 05:59:45;;;;;;;6.25;3.10;;;;;;;;;;5005292;28;20641;-73
2020/12/27 06:03:01;;;;;;;10.27;3.25;;;;;;;;;;5004884;28;20561;-73
2020/12/27 06:06:32;;;;;;;7.83;3.73;;;;;;;;;;5004924;28;20258;-73
2020/12/27 06:09:54;;;;;;;9.93;3.20;;;;;;;;;;5004649;28;20609;-73
2020/12/27 06:13:12;;;;;;;4.53;2.60;;;;;;;;;;4993826;28;20712;-72
2020/12/27 06:16:33;;;;;;;4.70;2.95;;;;;;;;;;5024508;23;20711;-73
2020/12/27 06:20:10;;;;;;;3.60;2.38;;;;;;;;;;5023204;28;20182;-72
2020/12/27 06:23:25;;;;;;;5.75;3.08;;;;;;;;;;4996795;28;20187;-72
2020/12/27 06:26:34;;;;;;;2.28;2.08;;;;;;;;;;5007939;28;20190;-72
2020/12/27 06:30:06;;;;;;;2.45;2.08;;;;;;;;;;5008111;28;20540;-72
2020/12/27 06:33:20;;;;;;;4.75;2.30;;;;;;;;;;4977341;28;20195;-73
2020/12/27 06:36:31;;;;;;;4.03;2.72;;;;;;;;;;4985978;28;20210;-74
2020/12/27 06:39:36;;;;;;;3.63;2.42;;;;;;;;;;4996026;28;20178;-74
2020/12/27 06:43:16;;;;;;;5.88;2.30;;;;;;;;;;4976681;28;20697;-73
2020/12/27 06:46:26;;;;;;;5.05;2.72;;;;;;;;;;4991232;28;20198;-73
2020/12/27 06:50:14;;;;;;;3.58;2.67;;;;;;;;;;4996221;28;20178;-73
2020/12/27 06:53:41;;;;;;;3.47;2.55;;;;;;;;;;4994051;28;20198;-74
2020/12/27 06:57:45;;;;;;;4.05;2.53;;;;;;;;;;4994821;28;20704;-73
2020/12/27 07:01:15;;;;;;;2.65;2.15;;;;;;;;;;4997803;28;20186;-73
2020/12/27 07:04:20;;;;;;;3.42;2.40;;;;;;;;;;4985294;28;20197;-73
2020/12/27 07:07:43;;;;;;;2.83;2.22;;;;;;;;;;5014503;28;20181;-73
2020/12/27 07:10:51;;;;;;;3.72;2.50;;;;;;;;;;4995704;28;20257;-73
2020/12/27 07:13:57;;;;;;;4.88;2.60;;;;;;;;;;4995938;28;20190;-73
2020/12/27 07:17:05;;;;;;;4.07;2.72;;;;;;;;;;4976699;28;20693;-74
2020/12/27 07:20:17;;;;;;;3.22;2.67;;;;;;;;;;5008934;28;20201;-74
2020/12/27 07:23:29;;;;;;;3.13;2.30;;;;;;;;;;5016007;28;20652;-74
2020/12/27 07:26:39;;;;;;;4.03;2.10;;;;;;;;;;5015946;28;20174;-74
2020/12/27 07:29:55;;;;;;;3.07;2.27;;;;;;;;;;5015257;28;20178;-74
2020/12/27 07:33:06;;;;;;;4.50;2.70;;;;;;;;;;4964895;28;20610;-74
2020/12/27 07:36:11;;;;;;;3.13;2.20;;;;;;;;;;4986940;28;20578;-74
2020/12/27 07:39:15;;;;;;;3.20;2.15;;;;;;;;;;4977237;28;20183;-74
2020/12/27 07:42:30;;;;;;;3.25;2.35;;;;;;;;;;4999769;28;20560;-73
2020/12/27 07:45:37;;;;;;;2.50;2.10;;;;;;;;;;5003484;28;20185;-73
2020/12/27 07:48:41;;;;;;;3.72;2.83;;;;;;;;;;5014741;28;20205;-74
2020/12/27 07:51:49;;;;;;;2.40;1.90;;;;;;;;;;5015082;28;20213;-73
2020/12/27 07:54:56;;;;;;;2.60;2.23;;;;;;;;;;4998918;28;20593;-73
2020/12/27 07:58:05;;;;;;;3.80;2.37;;;;;;;;;;4995261;28;20530;-73
2020/12/27 08:01:16;;;;;;;2.97;2.20;;;;;;;;;;4995280;28;21195;-73
2020/12/27 08:04:22;;;;;;;4.20;2.67;;;;;;;;;;4994527;28;21158;-73
2020/12/27 08:07:26;;;;;;;3.40;2.20;;;;;;;;;;4996216;28;20534;-75
2020/12/27 08:10:31;;;;;;;3.33;2.37;;;;;;;;;;4996030;28;20600;-74
2020/12/27 08:13:35;;;;;;;3.03;2.40;;;;;;;;;;5005943;28;20604;-74
2020/12/27 08:16:40;;;;;;;2.90;2.13;;;;;;;;;;4994456;28;20656;-73
2020/12/27 08:19:45;;;;;;;2.70;2.30;;;;;;;;;;4983537;28;20585;-73
2020/12/27 08:23:04;;;;;;;4.27;2.67;;;;;;;;;;4994165;28;20632;-73
2020/12/27 08:26:08;;;;;;;2.70;1.93;;;;;;;;;;4995008;28;20918;-73
2020/12/27 08:29:20;;;;;;;3.17;2.40;;;;;;;;;;4995722;28;20870;-74
2020/12/27 08:32:24;;;;;;;2.93;2.20;;;;;;;;;;4994408;28;21215;-73
2020/12/27 08:35:28;;;;;;;2.90;2.33;;;;;;;;;;4976068;28;20539;-74
2020/12/27 08:38:38;;;;;;;3.67;2.47;;;;;;;;;;4975712;28;20539;-74
2020/12/27 08:41:49;;;;;;;4.10;2.57;;;;;;;;;;5002238;28;20977;-73
2020/12/27 08:45:13;;;;;;;5.83;2.20;;;;;;;;;;4994710;28;20613;-73
2020/12/27 08:48:26;;;;;;;4.07;2.13;;;;;;;;;;4983310;28;20582;-73
2020/12/27 08:51:34;;;;;;;2.57;2.00;;;;;;;;;;4994788;28;20656;-73
2020/12/27 08:54:38;;;;;;;2.93;2.20;;;;;;;;;;4995126;28;20894;-74
2020/12/27 08:57:43;;;;;;;2.53;2.00;;;;;;;;;;4994664;28;21219;-73
2020/12/27 09:00:48;;;;;;;2.90;2.10;;;;;;;;;;5005460;28;20934;-74
2020/12/27 09:03:52;;;;;;;3.70;2.10;;;;;;;;;;4994519;28;20581;-74
2020/12/27 09:06:56;;;;;;;3.60;2.30;;;;;;;;;;4992311;28;20581;-73
2020/12/27 09:10:05;;;;;;;2.83;2.33;;;;;;;;;;4993536;28;20541;-74
2020/12/27 09:13:14;;;;;;;5.57;2.40;;;;;;;;;;4994169;28;20597;-74
2020/12/27 09:16:34;;;;;;;6.57;2.80;;;;;;;;;;4993594;28;20645;-74
2020/12/27 09:19:45;;;;;;;4.10;2.20;;;;;;;;;;4992753;28;20590;-74
2020/12/27 09:22:51;;;;;;;3.83;2.63;;;;;;;;;;4993319;28;20641;-74
2020/12/27 09:26:09;;;;;;;4.03;2.30;;;;;;;;;;4992363;28;20589;-73
2020/12/27 09:29:18;;;;;;;2.80;2.40;;;;;;;;;;5011271;28;21143;-74
2020/12/27 09:32:34;;;;;;;3.83;2.30;;;;;;;;;;5001827;28;20649;-74
2020/12/27 09:35:38;;;;;;;3.60;2.20;;;;;;;;;;4993581;28;20554;-74
2020/12/27 09:38:44;;;;;;;2.70;2.20;;;;;;;;;;4993387;28;20585;-74
2020/12/27 09:41:48;;;;;;;2.50;2.03;;;;;;;;;;5008092;28;20644;-74
2020/12/27 09:44:55;;;;;;;3.00;2.27;;;;;;;;;;5011699;28;20580;-74
2020/12/27 09:48:01;;;;;;;3.40;2.30;;;;;;;;;;5011126;28;20608;-74
2020/12/27 09:51:16;;;;;;;2.87;2.20;;;;;;;;;;5010452;28;21198;-74
2020/12/27 09:54:20;;;;;;;3.57;2.20;;;;;;;;;;5012580;28;20668;-74
2020/12/27 09:57:27;;;;;;;2.47;2.10;;;;;;;;;;5013303;28;20589;-74
2020/12/27 10:00:31;;;;;;;3.23;2.07;;;;;;;;;;5013566;28;20557;-74
2020/12/27 10:03:35;;;;;;;2.47;2.10;;;;;;;;;;5014187;28;20865;-74
2020/12/27 10:06:39;;;;;;;3.33;2.23;;;;;;;;;;5012920;28;20540;-74
2020/12/27 10:09:44;;;;;;;2.80;2.30;;;;;;;;;;5013363;28;21090;-74
2020/12/27 10:12:48;;;;;;;3.27;2.27;;;;;;;;;;5012536;28;20623;-74
2020/12/27 10:15:52;;;;;;;4.97;2.30;;;;;;;;;;5012520;28;20616;-74
2020/12/27 10:18:56;;;;;;;3.13;2.17;;;;;;;;;;5016127;28;20532;-74
2020/12/27 10:22:00;;;;;;;4.17;2.90;;;;;;;;;;5016329;28;20960;-74
2020/12/27 10:25:05;;;;;;;4.60;2.60;;;;;;;;;;5016738;28;20537;-73
2020/12/27 10:28:15;;;;;;;3.07;2.20;;;;;;;;;;5017534;28;20541;-73
2020/12/27 10:31:21;;;;;;;3.13;2.33;;;;;;;;;;5015762;28;20636;-73
2020/12/27 10:34:27;;;;;;;3.37;2.10;;;;;;;;;;5016187;28;20545;-74
2020/12/27 10:37:31;;;;;;;3.13;2.10;;;;;;;;;;5017543;28;20592;-73
2020/12/27 10:40:38;;;;;;;3.77;2.60;;;;;;;;;;5016779;28;20595;-73
2020/12/27 10:43:49;;;;;;;3.17;2.37;;;;;;;;;;5016303;28;20595;-74
2020/12/27 10:46:53;;;;;;;3.07;2.30;;;;;;;;;;5015881;28;20548;-74
2020/12/27 10:49:58;;;;;;;2.73;2.00;;;;;;;;;;5017042;28;20545;-73
2020/12/27 10:53:02;;;;;;;2.93;2.00;;;;;;;;;;5016623;28;21184;-74
2020/12/27 10:56:07;;;;;;;4.03;2.33;;;;;;;;;;5016472;28;20553;-74
2020/12/27 10:59:12;;;;;;;3.40;1.83;;;;;;;;;;5016649;28;20525;-73
2020/12/27 11:02:16;;;;;;;3.40;2.27;;;;;;;;;;5004152;28;20619;-73
2020/12/27 11:05:20;;;;;;;3.17;2.40;;;;;;;;;;5016612;28;20544;-73
2020/12/27 11:08:24;;;;;;;2.83;2.00;;;;;;;;;;5015859;28;20553;-73
2020/12/27 11:11:28;;;;;;;4.00;2.33;;;;;;;;;;5016034;28;20632;-74
2020/12/27 11:14:33;;;;;;;3.77;2.70;;;;;;;;;;5016113;28;20541;-73
2020/12/27 11:17:37;;;;;;;3.10;2.30;;;;;;;;;;5015295;28;20992;-73
2020/12/27 11:20:41;;;;;;;3.50;2.40;;;;;;;;;;5015219;28;21099;-74
2020/12/27 11:23:45;;;;;;;3.07;2.20;;;;;;;;;;5015919;28;21071;-73
2020/12/27 11:26:54;;;;;;;3.37;2.23;;;;;;;;;;5015893;28;20541;-74
2020/12/27 11:29:57;;;;;;;4.07;2.53;;;;;;;;;;5015150;28;20553;-74
2020/12/27 11:33:02;;;;;;;4.37;2.93;;;;;;;;;;5015898;28;20619;-73
2020/12/27 11:36:06;;;;;;;3.23;2.27;;;;;;;;;;5015470;28;20599;-73
2020/12/27 11:39:10;;;;;;;2.83;2.30;;;;;;;;;;5015184;28;21153;-73
2020/12/27 11:42:14;;;;;;;3.63;2.57;;;;;;;;;;5014844;28;20631;-73
2020/12/27 11:45:18;;;;;;;3.50;2.50;;;;;;;;;;5015701;28;21151;-73
2020/12/27 11:48:22;;;;;;;2.33;1.87;;;;;;;;;;5015499;28;20593;-73
2020/12/27 11:51:26;;;;;;;3.00;2.20;;;;;;;;;;5014808;28;20624;-74
2020/12/27 11:54:31;;;;;;;3.30;2.37;;;;;;;;;;5015305;28;20561;-73
2020/12/27 11:57:35;;;;;;;3.33;2.30;;;;;;;;;;5003460;28;20596;-74
2020/12/27 12:00:39;;;;;;;3.03;2.30;;;;;;;;;;5015778;28;20553;-74
2020/12/27 12:03:44;;;;;;;3.30;2.23;;;;;;;;;;5003888;28;20540;-74
2020/12/27 12:06:48;;;;;;;3.57;2.07;;;;;;;;;;5014809;28;20545;-74
2020/12/27 12:09:52;;;;;;;4.47;2.50;;;;;;;;;;5014916;28;20549;-73
2020/12/27 12:12:56;;;;;;;4.17;2.30;;;;;;;;;;5014697;28;20620;-73
2020/12/27 12:16:01;;;;;;;7.30;2.57;;;;;;;;;;5015145;28;20636;-73
2020/12/27 12:19:06;;;;;;;2.77;2.10;;;;;;;;;;5014985;28;21012;-73
2020/12/27 12:22:10;;;;;;;2.90;2.10;;;;;;;;;;5014039;28;21174;-74
2020/12/27 12:25:14;;;;;;;4.80;2.30;;;;;;;;;;5015624;28;20549;-74
2020/12/27 12:28:19;;;;;;;2.47;2.10;;;;;;;;;;5015165;28;20537;-73
2020/12/27 12:31:24;;;;;;;2.77;2.03;;;;;;;;;;5014310;28;20620;-73
2020/12/27 12:34:28;;;;;;;3.10;2.10;;;;;;;;;;5014472;28;20541;-74
2020/12/27 12:37:32;;;;;;;3.07;2.43;;;;;;;;;;5014292;28;20600;-73
2020/12/27 12:40:37;;;;;;;4.67;2.23;;;;;;;;;;5014096;28;20557;-73
2020/12/27 12:43:43;;;;;;;5.33;2.30;;;;;;;;;;5014668;28;21075;-74
2020/12/27 12:46:47;;;;;;;6.10;2.40;;;;;;;;;;5013359;28;21158;-76
2020/12/27 12:49:51;;;;;;;3.17;2.20;;;;;;;;;;5014372;28;20596;-75
2020/12/27 12:52:55;;;;;;;4.03;2.20;;;;;;;;;;5013480;28;20963;-75
2020/12/27 12:55:59;;;;;;;4.77;2.60;;;;;;;;;;5014296;28;20540;-75
2020/12/27 12:59:03;;;;;;;3.90;2.37;;;;;;;;;;5013488;28;20925;-74
2020/12/27 13:02:07;;;;;;;4.27;2.80;;;;;;;;;;5013853;28;20628;-74
2020/12/27 13:05:12;;;;;;;3.20;2.47;;;;;;;;;;5012958;28;20545;-74
2020/12/27 13:08:16;;;;;;;6.10;2.30;;;;;;;;;;5013774;28;20928;-74
2020/12/27 13:11:20;;;;;;;3.90;2.67;;;;;;;;;;5013048;28;20623;-74
2020/12/27 13:14:25;;;;;;;5.47;2.60;;;;;;;;;;5013237;28;20537;-74
2020/12/27 13:17:28;;;;;;;6.90;2.50;;;;;;;;;;5043089;22;20686;-70
2020/12/27 13:20:32;;;;;;;7.17;2.67;;;;;;;;;;5033781;28;21069;-70
2020/12/27 13:23:37;;;;;;;8.27;3.90;;;;;;;;;;5001798;28;20553;-70
2020/12/27 13:26:41;;;;;;;3.30;2.47;;;;;;;;;;5014119;28;20548;-70
2020/12/27 13:29:45;;;;;;;3.97;2.40;;;;;;;;;;5012762;28;20557;-69
2020/12/27 13:32:49;;;;;;;3.50;2.43;;;;;;;;;;5001206;28;20620;-69
2020/12/27 13:35:53;;;;;;;4.90;2.57;;;;;;;;;;5012416;28;20599;-70
2020/12/27 13:38:58;;;;;;;3.30;2.40;;;;;;;;;;5013184;28;20644;-70
2020/12/27 13:42:03;;;;;;;2.70;2.40;;;;;;;;;;5013280;28;20632;-69
2020/12/27 13:45:07;;;;;;;3.43;2.37;;;;;;;;;;5013361;28;20557;-70
2020/12/27 13:48:11;;;;;;;2.73;2.30;;;;;;;;;;5013703;28;20534;-70
2020/12/27 13:51:22;;;;;;;4.63;2.63;;;;;;;;;;5013163;28;20631;-70
2020/12/27 13:54:26;;;;;;;3.17;2.27;;;;;;;;;;5017260;28;20553;-70
2020/12/27 13:57:30;;;;;;;3.10;2.47;;;;;;;;;;5017401;28;20541;-70
2020/12/27 14:00:34;;;;;;;3.60;2.40;;;;;;;;;;5017222;28;20560;-70
2020/12/27 14:03:39;;;;;;;5.33;3.00;;;;;;;;;;5017428;28;20545;-70
2020/12/27 14:06:43;;;;;;;4.90;2.47;;;;;;;;;;5017128;28;20540;-70
2020/12/27 14:09:48;;;;;;;3.33;2.30;;;;;;;;;;5017012;28;20545;-69
2020/12/27 14:12:52;;;;;;;6.60;2.90;;;;;;;;;;5016624;28;20628;-70
2020/12/27 14:15:56;;;;;;;3.60;2.67;;;;;;;;;;5016977;28;20603;-70
2020/12/27 14:19:00;;;;;;;4.80;2.77;;;;;;;;;;5017074;28;20585;-70
2020/12/27 14:22:04;;;;;;;3.13;2.60;;;;;;;;;;5016748;28;20627;-69
2020/12/27 14:25:09;;;;;;;3.33;2.60;;;;;;;;;;5016461;28;20556;-69
2020/12/27 14:28:13;;;;;;;4.80;2.70;;;;;;;;;;5015565;28;20592;-70
2020/12/27 14:31:17;;;;;;;3.63;2.73;;;;;;;;;;5004562;28;20628;-70
2020/12/27 14:34:22;;;;;;;3.30;2.40;;;;;;;;;;5016561;28;20687;-70
2020/12/27 14:37:26;;;;;;;4.20;2.90;;;;;;;;;;5016765;28;20544;-70
2020/12/27 14:40:30;;;;;;;11.87;2.90;;;;;;;;;;5016291;28;20544;-69
2020/12/27 14:43:34;;;;;;;3.37;2.33;;;;;;;;;;5015599;28;20548;-70
2020/12/27 14:46:39;;;;;;;4.40;2.63;;;;;;;;;;5016329;28;21090;-70
2020/12/27 14:49:43;;;;;;;4.07;3.07;;;;;;;;;;5016287;28;20540;-70
2020/12/27 14:52:48;;;;;;;4.53;3.23;;;;;;;;;;5015110;28;20619;-69
2020/12/27 14:55:52;;;;;;;4.80;2.80;;;;;;;;;;5016446;28;20541;-70
2020/12/27 14:58:56;;;;;;;4.50;2.90;;;;;;;;;;5015747;28;20596;-70
2020/12/27 15:02:01;;;;;;;3.20;2.60;;;;;;;;;;5016094;28;20619;-69
2020/12/27 15:05:05;;;;;;;3.53;2.87;;;;;;;;;;5004235;28;21095;-70
2020/12/27 15:08:08;;;;;;;5.10;2.87;;;;;;;;;;5016206;28;21082;-70
2020/12/27 15:11:13;;;;;;;3.97;2.63;;;;;;;;;;5015648;28;20628;-69
2020/12/27 15:14:17;;;;;;;4.00;2.90;;;;;;;;;;5015862;28;20545;-70
2020/12/27 15:17:21;;;;;;;3.83;2.80;;;;;;;;;;5014870;28;20607;-69
2020/12/27 15:20:25;;;;;;;16.57;3.27;;;;;;;;;;5016219;28;20545;-70
2020/12/27 15:23:29;;;;;;;3.43;2.47;;;;;;;;;;5003557;28;21102;-70
2020/12/27 15:26:34;;;;;;;4.57;2.83;;;;;;;;;;5015723;28;20604;-70
2020/12/27 15:29:38;;;;;;;4.50;2.87;;;;;;;;;;5003270;28;20600;-70
2020/12/27 15:32:42;;;;;;;3.50;2.67;;;;;;;;;;5015149;28;20624;-70
2020/12/27 15:35:46;;;;;;;4.70;2.80;;;;;;;;;;5015755;28;20600;-70
2020/12/27 15:38:50;;;;;;;3.70;2.80;;;;;;;;;;5003353;28;20589;-70
2020/12/27 15:41:55;;;;;;;5.97;3.50;;;;;;;;;;5015059;28;20620;-70
2020/12/27 15:44:59;;;;;;;6.70;2.77;;;;;;;;;;5015126;28;20940;-70
2020/12/27 15:48:03;;;;;;;4.67;2.87;;;;;;;;;;5015353;28;21060;-70
2020/12/27 15:51:09;;;;;;;3.33;2.90;;;;;;;;;;5015169;28;20616;-70
2020/12/27 15:54:13;;;;;;;3.63;2.80;;;;;;;;;;5015217;28;20541;-70
2020/12/27 15:57:17;;;;;;;6.40;3.17;;;;;;;;;;5009134;28;20585;-69
2020/12/27 16:00:22;;;;;;;6.13;3.60;;;;;;;;;;5014312;28;21204;-69
2020/12/27 16:03:27;;;;;;;4.47;3.10;;;;;;;;;;5022329;28;20537;-70
2020/12/27 16:06:31;;;;;;;4.23;3.03;;;;;;;;;;5006229;28;20617;-69
2020/12/27 16:09:35;;;;;;;4.83;3.17;;;;;;;;;;5034184;28;20548;-70
2020/12/27 16:12:39;;;;;;;4.67;3.20;;;;;;;;;;5024473;28;20639;-70
2020/12/27 16:15:43;;;;;;;5.37;3.43;;;;;;;;;;5014077;28;20620;-69
2020/12/27 16:18:48;;;;;;;5.83;4.30;;;;;;;;;;5002136;28;20960;-70
2020/12/27 16:21:53;;;;;;;4.47;3.23;;;;;;;;;;5001678;28;21226;-69
2020/12/27 16:24:57;;;;;;;6.53;3.83;;;;;;;;;;4982582;28;20593;-70
2020/12/27 16:28:02;;;;;;;6.43;3.90;;;;;;;;;;5014188;28;20585;-69
2020/12/27 16:31:10;;;;;;;6.00;3.80;;;;;;;;;;5001797;28;20662;-70
2020/12/27 16:34:15;;;;;;;6.40;3.73;;;;;;;;;;4983017;28;20589;-70
2020/12/27 16:37:19;;;;;;;7.17;3.97;;;;;;;;;;4997519;28;20952;-69
2020/12/27 16:40:24;;;;;;;5.57;4.07;;;;;;;;;;5001748;28;20644;-70
2020/12/27 16:43:29;;;;;;;6.97;3.90;;;;;;;;;;4989270;28;20621;-70
2020/12/27 16:46:33;;;;;;;6.03;3.57;;;;;;;;;;4994419;28;20878;-70
2020/12/27 16:49:39;;;;;;;5.00;3.57;;;;;;;;;;4982314;28;20530;-70
2020/12/27 16:52:43;;;;;;;6.67;3.73;;;;;;;;;;4999999;28;20643;-70
2020/12/27 16:55:48;;;;;;;4.40;3.33;;;;;;;;;;5008440;28;20617;-69
2020/12/27 16:58:52;;;;;;;6.70;4.00;;;;;;;;;;4994324;28;20644;-71
2020/12/27 17:01:56;;;;;;;6.30;3.73;;;;;;;;;;5000841;28;20640;-70
2020/12/27 17:05:00;;;;;;;5.33;3.90;;;;;;;;;;5000684;28;20873;-69
2020/12/27 17:08:04;;;;;;;4.77;3.50;;;;;;;;;;5023785;28;20576;-70
2020/12/27 17:11:08;;;;;;;4.87;3.50;;;;;;;;;;5019538;28;20623;-70
2020/12/27 17:14:12;;;;;;;5.93;3.53;;;;;;;;;;5013896;28;20537;-71
2020/12/27 17:17:15;;;;;;;5.23;3.83;;;;;;;;;;5013405;28;20608;-71
2020/12/27 17:20:19;;;;;;;3.50;3.13;;;;;;;;;;5013642;28;20917;-70
2020/12/27 17:23:24;;;;;;;5.77;3.43;;;;;;;;;;5012228;28;20620;-70
2020/12/27 17:26:28;;;;;;;5.33;3.37;;;;;;;;;;5000943;28;20545;-71
2020/12/27 17:29:32;;;;;;;4.40;3.50;;;;;;;;;;5012540;28;20541;-70
2020/12/27 17:32:37;;;;;;;3.97;3.30;;;;;;;;;;4981561;28;21218;-71
2020/12/27 17:35:41;;;;;;;6.37;3.67;;;;;;;;;;4993671;28;20594;-71
2020/12/27 17:38:45;;;;;;;4.77;3.40;;;;;;;;;;4981430;28;20553;-71
2020/12/27 17:41:49;;;;;;;6.13;3.57;;;;;;;;;;4993314;28;20644;-70
2020/12/27 17:44:53;;;;;;;5.17;3.67;;;;;;;;;;4993703;28;20557;-69
2020/12/27 17:47:58;;;;;;;6.57;4.10;;;;;;;;;;4993079;28;20589;-70
2020/12/27 17:51:02;;;;;;;4.67;3.60;;;;;;;;;;5000764;28;20648;-71
2020/12/27 17:54:06;;;;;;;5.67;3.60;;;;;;;;;;4989492;28;20612;-72
2020/12/27 17:57:11;;;;;;;5.37;3.80;;;;;;;;;;5009887;28;21188;-72
2020/12/27 18:00:15;;;;;;;7.80;4.27;;;;;;;;;;5032553;28;20643;-71
2020/12/27 18:03:20;;;;;;;5.20;3.87;;;;;;;;;;5012935;28;20552;-71
2020/12/27 18:06:24;;;;;;;6.33;3.83;;;;;;;;;;5012651;28;20561;-71
2020/12/27 18:09:29;;;;;;;6.50;4.20;;;;;;;;;;5002085;28;20568;-71
2020/12/27 18:12:33;;;;;;;5.37;4.00;;;;;;;;;;5030989;28;20627;-71
2020/12/27 18:15:37;;;;;;;7.90;4.57;;;;;;;;;;5008748;28;20616;-71
2020/12/27 18:18:41;;;;;;;4.37;3.83;;;;;;;;;;4993154;28;20554;-71
2020/12/27 18:21:45;;;;;;;7.00;4.43;;;;;;;;;;5024432;28;20635;-70
2020/12/27 18:24:49;;;;;;;8.93;4.93;;;;;;;;;;5032850;28;21163;-70
2020/12/27 18:27:54;;;;;;;8.23;5.43;;;;;;;;;;5016691;28;20933;-70
2020/12/27 18:30:58;;;;;;;8.97;5.03;;;;;;;;;;5013019;28;20545;-70
2020/12/27 18:34:02;;;;;;;14.43;7.67;;;;;;;;;;5013096;28;20544;-70
2020/12/27 18:37:06;;;;;;;30.87;13.17;;;;;;;;;;4993531;28;20582;-70
2020/12/27 18:40:10;;;;;;;21.67;9.90;;;;;;;;;;4997160;28;20616;-70
2020/12/27 18:43:14;;;;;;;15.97;7.47;;;;;;;;;;4996817;28;21171;-70
2020/12/27 18:46:19;;;;;;;10.00;6.37;;;;;;;;;;5001619;28;20627;-70
2020/12/27 18:49:23;;;;;;;25.73;11.37;;;;;;;;;;5012326;28;20612;-70